Aeroporto :
LOGIN :

Iscrizione | Disclaimer

   EN    FR    IT 

 










Sommario :    VFR   VFR Marginale   IFR   IFR Intensivo   IFR Molto Intensivo
Visibilità : 
Base nubi : 
>= 8 km
>= 3000ft
5 / 8 km
1000 / 3000 ft
1500m / 5 km
500 / 1000 ft
800 / 1500m
200 / 500 ft
< 800m
< 200 ft
Simboli :   Temporali  Nebbia  Neve Forte  Precipitazioni Forti  Vento > 20 kt
SIGMETs :   Varie  Temporali  Ghiacco  Turbolenza  Onda orograficha  Ceneri Vulcaniche






- Altitudine del aeroporto : 768 ft
- Codice IATA : MXP


LIMC - Milano Malpensa

ULTIMO METAR :
  • 200620Z 01006KT 4000 -DZ BR BKN010 OVC020 08/08 Q1015 NOSIG

METARs OBSOLETI :
  • 200550Z 01006KT 5000 -DZ BR FEW004 OVC011 08/08 Q1015 NOSIG
  • 200520Z 01005KT 8000 BKN012 08/08 Q1015 NOSIG
  • 200450Z 01004KT 8000 OVC015 08/08 Q1015 NOSIG
  • 200420Z 01005KT 7000 SCT012 OVC023 08/08 Q1015 NOSIG
  • 200350Z 01006KT 6000 -DZ OVC012 08/08 Q1015 NOSIG

TAF TAF LIMC
Valido dal 20 a 06 ore il 21 a 12 ore UTC


200500Z 2006/2112 VRB05KT 7000 BOVC025
BECMG 2021/2024 3000 BCFG
PROB40
TEMPO 2102/2107 0600 FG BKN003



MetMap, La meteo Aeronautica in un colpo d'occhio ! - Copyright ORBIFLY Dicembre 2007 - Disclaimer

ORBIFLY MET'MAP TEAM :

Programmazione e sviluppo : Alexandra Zaïnal
Concezione e sviluppo : Baudouin d'Aumeries
Co-Programmazione e sviluppo : Marc-Olivier Méhu
Supporto tecnico e logistico : Manuel Goepfert
Aiuto per la traduzione : Arnaldo La Scala

Contatto : metmap@orbifly.com




FONTI E CREDITI :

   NOAA